createdAt,value
2023-03-16T00:01:10.375Z,8.43
2023-03-16T00:03:41.795Z,8.00
2023-03-16T00:06:12.515Z,7.85
2023-03-16T00:08:44.142Z,8.15
2023-03-16T00:11:14.795Z,8.68
2023-03-16T00:13:47.302Z,7.97
2023-03-16T00:16:17.829Z,8.82
2023-03-16T00:18:48.558Z,7.50
2023-03-16T00:21:19.194Z,8.73
2023-03-16T00:23:49.778Z,8.80
2023-03-16T00:26:20.907Z,7.47
2023-03-16T00:28:55.235Z,7.20
2023-03-16T00:31:26.178Z,7.93
2023-03-16T00:33:56.960Z,6.85
2023-03-16T00:36:27.514Z,7.10
2023-03-16T00:38:58.070Z,7.60
2023-03-16T00:41:28.657Z,7.50
2023-03-16T00:44:02.030Z,8.00
2023-03-16T00:46:32.632Z,7.97
2023-03-16T00:49:03.812Z,7.40
2023-03-16T00:51:34.880Z,6.90
2023-03-16T00:54:06.480Z,7.47
2023-03-16T00:56:37.035Z,7.55
2023-03-16T00:59:09.782Z,7.18
2023-03-16T01:01:40.414Z,6.60
2023-03-16T01:04:11.869Z,6.65
2023-03-16T01:06:42.778Z,6.78
2023-03-16T01:09:15.709Z,6.65
2023-03-16T01:11:46.236Z,7.07
2023-03-16T01:14:18.589Z,7.95
2023-03-16T01:16:49.143Z,7.18
2023-03-16T01:19:19.631Z,7.78
2023-03-16T01:21:50.217Z,8.05
2023-03-16T01:24:20.861Z,8.50
2023-03-16T01:26:51.562Z,9.93
2023-03-16T01:29:27.175Z,9.65
2023-03-16T01:31:57.905Z,9.75
2023-03-16T01:34:28.522Z,9.18
2023-03-16T01:36:59.342Z,10.75
2023-03-16T01:39:30.175Z,10.07
2023-03-16T01:42:00.655Z,10.75
2023-03-16T01:44:35.951Z,9.85
2023-03-16T01:47:06.507Z,9.40
2023-03-16T01:49:39.518Z,9.93
2023-03-16T01:52:15.387Z,10.25
2023-03-16T01:54:49.382Z,10.63
2023-03-16T01:57:22.889Z,15.13
2023-03-16T01:59:57.741Z,18.63
2023-03-16T02:02:33.302Z,11.05
2023-03-16T02:05:07.044Z,9.15
2023-03-16T02:07:40.964Z,9.93
2023-03-16T02:10:13.998Z,11.32
2023-03-16T02:12:45.588Z,11.68
2023-03-16T02:15:18.106Z,11.73
2023-03-16T02:17:50.044Z,11.60
2023-03-16T02:20:36.099Z,10.65
2023-03-16T02:23:08.658Z,12.80
2023-03-16T02:25:49.185Z,13.32
2023-03-16T02:28:28.094Z,10.73
2023-03-16T02:31:01.094Z,10.80
2023-03-16T02:33:33.695Z,10.80
2023-03-16T02:36:04.590Z,12.57
2023-03-16T02:38:35.184Z,11.30
2023-03-16T02:41:14.670Z,14.85
2023-03-16T02:43:50.777Z,11.82
2023-03-16T02:46:24.530Z,8.85
2023-03-16T02:49:03.844Z,6.78
2023-03-16T02:51:34.629Z,6.45
2023-03-16T02:54:05.366Z,6.97
2023-03-16T02:56:35.872Z,6.35
2023-03-16T02:59:06.431Z,6.32
2023-03-16T03:01:39.004Z,5.82
2023-03-16T03:04:09.978Z,5.90
2023-03-16T03:06:40.885Z,4.78
2023-03-16T03:09:12.512Z,6.15
2023-03-16T03:11:43.353Z,6.13
2023-03-16T03:14:14.052Z,5.85
2023-03-16T03:16:47.535Z,5.25
2023-03-16T03:19:18.104Z,5.55
2023-03-16T03:21:48.665Z,5.55
2023-03-16T03:24:19.672Z,6.18
2023-03-16T03:26:50.223Z,7.70
2023-03-16T03:29:21.609Z,7.45
2023-03-16T03:31:53.925Z,6.38
2023-03-16T03:34:27.508Z,6.10
2023-03-16T03:36:58.261Z,5.80
2023-03-16T03:39:28.837Z,5.30
2023-03-16T03:41:59.440Z,5.82
2023-03-16T03:44:30.007Z,5.95
2023-03-16T03:47:02.361Z,5.85
2023-03-16T03:49:33.235Z,6.00
2023-03-16T03:52:05.949Z,6.10
2023-03-16T03:54:36.720Z,6.90
2023-03-16T03:57:08.119Z,6.55
2023-03-16T03:59:43.577Z,6.47
2023-03-16T04:02:16.747Z,6.25
2023-03-16T04:04:47.732Z,7.00
2023-03-16T04:07:18.392Z,6.38
2023-03-16T04:09:48.932Z,6.65
2023-03-16T04:12:19.492Z,6.53
2023-03-16T04:14:50.076Z,5.63
2023-03-16T04:17:22.222Z,7.07
2023-03-16T04:19:52.857Z,5.82
2023-03-16T04:22:24.200Z,6.88
2023-03-16T04:24:54.820Z,6.28
2023-03-16T04:27:25.401Z,7.10
2023-03-16T04:29:59.635Z,9.25
2023-03-16T04:32:32.596Z,9.90
2023-03-16T04:35:03.116Z,8.48
2023-03-16T04:37:35.330Z,7.90
2023-03-16T04:40:12.656Z,8.60
2023-03-16T04:42:43.175Z,9.02
2023-03-16T04:45:15.049Z,7.47
2023-03-16T04:47:47.146Z,7.85
2023-03-16T04:50:17.716Z,8.43
2023-03-16T04:52:48.289Z,7.95
2023-03-16T04:55:18.883Z,8.63
2023-03-16T04:57:49.396Z,9.27
2023-03-16T05:00:21.517Z,8.10
2023-03-16T05:02:54.285Z,9.85
2023-03-16T05:05:25.100Z,8.35
2023-03-16T05:07:55.551Z,9.43
2023-03-16T05:10:26.319Z,9.95
2023-03-16T05:12:57.632Z,9.25
2023-03-16T05:15:28.547Z,9.70
2023-03-16T05:18:00.732Z,10.50
2023-03-16T05:20:31.329Z,9.18
2023-03-16T05:23:01.891Z,9.02
2023-03-16T05:25:32.375Z,9.38
2023-03-16T05:28:03.033Z,10.40
2023-03-16T05:30:33.648Z,10.45
2023-03-16T05:33:05.948Z,10.45
2023-03-16T05:35:36.745Z,10.23
2023-03-16T05:38:10.731Z,10.95
2023-03-16T05:40:41.591Z,9.95
2023-03-16T05:43:12.068Z,9.10
2023-03-16T05:45:42.436Z,9.70
2023-03-16T05:48:14.696Z,10.05
2023-03-16T05:50:45.153Z,11.05
2023-03-16T05:53:16.259Z,9.88
2023-03-16T05:55:46.746Z,9.90
2023-03-16T05:58:17.230Z,9.85
2023-03-16T06:00:47.710Z,9.48
2023-03-16T06:03:19.836Z,9.65
2023-03-16T06:05:51.007Z,9.27
2023-03-16T06:08:21.456Z,8.90
2023-03-16T06:10:51.896Z,9.52
2023-03-16T06:13:22.444Z,9.35
2023-03-16T06:15:53.363Z,10.63
2023-03-16T06:18:25.468Z,8.70
2023-03-16T06:20:56.072Z,8.68
2023-03-16T06:23:26.517Z,8.50
2023-03-16T06:25:57.141Z,8.63
2023-03-16T06:28:28.239Z,10.10
2023-03-16T06:30:59.871Z,9.93
2023-03-16T06:33:32.409Z,9.75
2023-03-16T06:36:03.500Z,9.15
2023-03-16T06:38:34.502Z,9.57
2023-03-16T06:41:04.918Z,9.50
2023-03-16T06:43:35.406Z,9.65
2023-03-16T06:46:05.888Z,9.95
2023-03-16T06:48:38.046Z,8.75
2023-03-16T06:51:09.501Z,9.05
2023-03-16T06:53:40.054Z,9.18
2023-03-16T06:56:11.057Z,8.93
2023-03-16T06:58:41.574Z,9.90
2023-03-16T07:01:13.338Z,9.85
2023-03-16T07:03:45.433Z,10.18
2023-03-16T07:06:15.870Z,9.07
2023-03-16T07:08:46.429Z,8.77
2023-03-16T07:11:17.079Z,6.55
2023-03-16T07:13:47.712Z,6.93
2023-03-16T07:16:18.280Z,6.45
2023-03-16T07:18:50.250Z,6.95
2023-03-16T07:21:21.003Z,6.10
2023-03-16T07:23:51.517Z,6.28
2023-03-16T07:26:22.156Z,5.18
2023-03-16T07:28:52.733Z,4.80
2023-03-16T07:31:23.408Z,4.00
2023-03-16T07:33:55.692Z,3.78
2023-03-16T07:36:26.751Z,3.58
2023-03-16T07:38:57.386Z,3.95
2023-03-16T07:41:28.048Z,2.95
2023-03-16T07:43:59.249Z,3.40
2023-03-16T07:46:29.864Z,4.60
2023-03-16T07:49:02.213Z,4.45
2023-03-16T07:51:32.668Z,4.15
2023-03-16T07:54:03.093Z,3.70
2023-03-16T07:56:47.444Z,2.65
2023-03-16T07:59:20.954Z,2.28
2023-03-16T08:01:51.859Z,2.20
2023-03-16T08:04:28.937Z,2.38
2023-03-16T08:07:01.942Z,2.72
2023-03-16T08:09:32.365Z,3.17
2023-03-16T08:12:02.910Z,2.60
2023-03-16T08:14:36.433Z,3.70
2023-03-16T08:17:18.374Z,2.97
2023-03-16T08:19:50.472Z,2.60
2023-03-16T08:22:21.892Z,2.90
2023-03-16T08:24:53.276Z,3.13
2023-03-16T08:27:23.782Z,3.30
2023-03-16T08:29:58.583Z,3.80
2023-03-16T08:32:29.340Z,4.78
2023-03-16T08:35:01.525Z,5.95
2023-03-16T08:37:32.200Z,7.13
2023-03-16T08:40:06.238Z,8.15
2023-03-16T08:42:41.446Z,10.13
2023-03-16T08:45:14.403Z,7.53
2023-03-16T08:47:45.156Z,9.00
2023-03-16T08:50:17.589Z,9.73
2023-03-16T08:52:51.142Z,9.30
2023-03-16T08:55:21.838Z,9.32
2023-03-16T08:57:52.845Z,10.52
2023-03-16T09:00:24.431Z,9.88
2023-03-16T09:02:55.669Z,9.77
2023-03-16T09:05:29.385Z,10.07
2023-03-16T09:08:07.033Z,10.63
2023-03-16T09:10:39.958Z,10.55
2023-03-16T09:13:13.300Z,10.88
2023-03-16T09:15:43.861Z,10.88
2023-03-16T09:18:14.601Z,11.60
2023-03-16T09:20:48.630Z,12.45
2023-03-16T09:23:19.588Z,12.60
2023-03-16T09:25:55.661Z,12.82
2023-03-16T09:28:26.247Z,11.85
2023-03-16T09:30:57.666Z,11.18
2023-03-16T09:33:29.720Z,12.13
2023-03-16T09:36:07.175Z,11.93
2023-03-16T09:38:38.303Z,11.68
2023-03-16T09:41:12.417Z,12.07
2023-03-16T09:44:02.927Z,11.80
2023-03-16T09:46:39.638Z,11.65
2023-03-16T09:49:12.394Z,12.15
2023-03-16T09:51:52.212Z,12.77
2023-03-16T09:54:34.345Z,11.38
2023-03-16T09:57:09.545Z,11.18
2023-03-16T09:59:40.025Z,15.48
2023-03-16T10:02:32.420Z,24.38
2023-03-16T10:05:10.664Z,22.95
2023-03-16T10:07:53.170Z,14.68
2023-03-16T10:10:43.202Z,13.88
2023-03-16T10:15:51.991Z,13.68
2023-03-16T10:18:26.042Z,14.05
2023-03-16T10:20:57.586Z,15.00
2023-03-16T10:23:30.231Z,15.00
2023-03-16T10:26:01.454Z,14.57
2023-03-16T10:28:34.643Z,12.57
2023-03-16T10:31:05.838Z,14.07
2023-03-16T10:33:38.573Z,13.52
2023-03-16T10:36:35.494Z,13.40
2023-03-16T10:39:34.347Z,14.07
2023-03-16T10:42:04.868Z,15.05
2023-03-16T10:44:42.490Z,14.45
2023-03-16T10:47:25.776Z,13.35
2023-03-16T10:49:56.552Z,13.60
2023-03-16T10:52:34.213Z,13.38
2023-03-16T10:55:13.872Z,13.98
2023-03-16T10:57:52.298Z,18.25
2023-03-16T11:00:32.931Z,15.00
2023-03-16T11:03:03.833Z,19.45
2023-03-16T11:05:37.067Z,24.75
2023-03-16T11:08:14.521Z,28.85
2023-03-16T11:10:56.013Z,14.60
2023-03-16T11:13:35.949Z,22.35
2023-03-16T11:16:20.166Z,24.90
2023-03-16T11:19:15.837Z,25.65
2023-03-16T11:22:01.376Z,18.45
2023-03-16T11:24:42.728Z,16.13
2023-03-16T11:27:49.772Z,13.40
2023-03-16T11:30:31.822Z,13.80
2023-03-16T11:33:05.106Z,15.55
2023-03-16T11:35:59.226Z,12.65
2023-03-16T11:38:37.101Z,13.93
2023-03-16T11:41:10.189Z,13.98
2023-03-16T11:43:58.049Z,16.38
2023-03-16T11:46:31.783Z,23.15
2023-03-16T11:49:33.363Z,16.02
2023-03-16T11:52:16.351Z,12.95
2023-03-16T11:55:04.088Z,12.82
2023-03-16T11:57:51.743Z,12.27
2023-03-16T12:00:33.539Z,13.35
2023-03-16T12:03:41.126Z,12.63
2023-03-16T12:06:25.758Z,13.38
2023-03-16T12:09:15.395Z,12.65
2023-03-16T12:11:57.644Z,12.85
2023-03-16T12:14:33.083Z,12.57
2023-03-16T12:17:17.294Z,12.48
2023-03-16T12:19:52.950Z,13.05
2023-03-16T12:22:28.538Z,13.15
2023-03-16T12:24:59.129Z,13.63
2023-03-16T12:27:40.174Z,12.75
2023-03-16T12:30:31.144Z,14.07
2023-03-16T12:33:30.723Z,13.63
2023-03-16T12:36:09.159Z,14.05
2023-03-16T12:38:48.500Z,12.63
2023-03-16T12:41:34.586Z,14.70
2023-03-16T12:44:18.295Z,12.23
2023-03-16T12:46:58.577Z,12.48
2023-03-16T12:49:34.913Z,13.38
2023-03-16T12:52:08.188Z,11.32
2023-03-16T12:54:41.235Z,11.20
2023-03-16T12:57:17.727Z,12.05
2023-03-16T12:59:51.494Z,10.73
2023-03-16T13:02:30.591Z,10.50
2023-03-16T13:05:05.835Z,10.65
2023-03-16T13:07:44.411Z,10.80
2023-03-16T13:10:17.500Z,10.05
2023-03-16T13:12:52.407Z,11.13
2023-03-16T13:15:41.336Z,11.13
2023-03-16T13:18:28.590Z,9.73
2023-03-16T13:21:03.293Z,10.10
2023-03-16T13:24:04.633Z,10.35
2023-03-16T13:26:44.255Z,9.30
2023-03-16T13:29:26.815Z,9.65
2023-03-16T13:32:00.001Z,9.35
2023-03-16T13:34:36.113Z,10.13
2023-03-16T13:37:18.160Z,9.63
2023-03-16T13:39:56.066Z,8.32
2023-03-16T13:42:28.210Z,8.82
2023-03-16T13:45:00.175Z,9.63
2023-03-16T13:47:31.525Z,9.18
2023-03-16T13:50:03.466Z,9.50
2023-03-16T13:52:38.401Z,9.27
2023-03-16T13:55:37.380Z,9.35
2023-03-16T13:58:08.923Z,9.10
2023-03-16T14:00:40.565Z,8.95
2023-03-16T14:03:17.040Z,9.23
2023-03-16T14:05:48.497Z,9.13
2023-03-16T14:08:23.494Z,9.18
2023-03-16T14:11:00.618Z,9.80
2023-03-16T14:13:39.144Z,9.50
2023-03-16T14:16:17.515Z,9.88
2023-03-16T14:18:52.868Z,8.98
2023-03-16T14:21:26.582Z,9.73
2023-03-16T14:24:02.905Z,8.57
2023-03-16T14:26:43.852Z,8.40
2023-03-16T14:29:33.229Z,8.20
2023-03-16T14:32:04.209Z,7.75
2023-03-16T14:34:38.011Z,7.93
2023-03-16T14:37:10.607Z,9.40
2023-03-16T14:39:43.269Z,9.85
2023-03-16T14:42:22.341Z,10.02
2023-03-16T14:44:53.234Z,8.43
2023-03-16T14:47:27.666Z,9.20
2023-03-16T14:50:00.210Z,8.13
2023-03-16T14:52:33.852Z,9.70
2023-03-16T14:55:18.399Z,8.38
2023-03-16T14:57:50.331Z,8.25
2023-03-16T15:00:22.901Z,8.05
2023-03-16T15:03:03.981Z,7.28
2023-03-16T15:05:38.024Z,7.40
2023-03-16T15:08:10.413Z,7.90
2023-03-16T15:10:42.713Z,7.05
2023-03-16T15:13:35.372Z,6.93
2023-03-16T15:16:06.695Z,6.78
2023-03-16T15:18:38.486Z,6.95
2023-03-16T15:21:14.687Z,7.05
2023-03-16T15:23:46.327Z,6.95
2023-03-16T15:26:24.462Z,7.60
2023-03-16T15:28:55.505Z,7.22
2023-03-16T15:31:26.305Z,9.18
2023-03-16T15:33:56.804Z,21.92
2023-03-16T15:36:27.563Z,16.20
2023-03-16T15:38:58.394Z,14.48
2023-03-16T15:41:41.453Z,18.67
2023-03-16T15:44:17.612Z,12.30
2023-03-16T15:46:48.854Z,8.82
2023-03-16T15:49:22.825Z,7.72
2023-03-16T15:51:53.703Z,8.55
2023-03-16T15:54:24.617Z,7.65
2023-03-16T15:57:01.436Z,6.70
2023-03-16T15:59:38.934Z,6.93
2023-03-16T16:02:31.195Z,7.30
2023-03-16T16:05:03.208Z,7.25
2023-03-16T16:07:33.953Z,8.07
2023-03-16T16:10:06.288Z,7.88
2023-03-16T16:12:39.243Z,7.68
2023-03-16T16:15:22.707Z,7.53
2023-03-16T16:18:19.426Z,8.40
2023-03-16T16:20:47.328Z,7.63
2023-03-16T16:23:18.945Z,8.18
2023-03-16T16:25:50.518Z,7.78
2023-03-16T16:28:25.389Z,7.45
2023-03-16T16:30:57.059Z,7.10
2023-03-16T16:33:31.147Z,6.90
2023-03-16T16:36:03.426Z,7.55
2023-03-16T16:38:35.119Z,7.00
2023-03-16T16:41:11.137Z,7.57
2023-03-16T16:43:45.624Z,7.63
2023-03-16T16:46:18.220Z,7.50
2023-03-16T16:48:51.438Z,8.35
2023-03-16T16:51:25.752Z,7.95
2023-03-16T16:53:57.970Z,7.07
2023-03-16T16:56:32.070Z,7.35
2023-03-16T16:59:16.308Z,7.82
2023-03-16T17:01:51.684Z,7.80
2023-03-16T17:04:26.583Z,6.70
2023-03-16T17:06:59.723Z,6.70
2023-03-16T17:09:32.769Z,6.80
2023-03-16T17:12:04.268Z,7.10
2023-03-16T17:14:36.847Z,6.85
2023-03-16T17:17:16.969Z,7.07
2023-03-16T17:22:25.352Z,8.20
2023-03-16T17:24:56.462Z,7.45
2023-03-16T17:27:32.665Z,7.07
2023-03-16T17:30:05.337Z,7.30
2023-03-16T17:32:38.901Z,6.53
2023-03-16T17:35:22.596Z,7.45
2023-03-16T17:37:53.139Z,7.63
2023-03-16T17:40:27.770Z,7.05
2023-03-16T17:42:58.425Z,6.78
2023-03-16T17:45:31.461Z,7.50
2023-03-16T17:48:02.185Z,7.55
2023-03-16T17:50:35.953Z,7.35
2023-03-16T17:53:06.612Z,6.65
2023-03-16T17:55:37.551Z,7.65
2023-03-16T17:58:08.688Z,6.60
2023-03-16T18:00:43.219Z,6.75
2023-03-16T18:03:16.206Z,6.78
2023-03-16T18:05:49.376Z,7.28
2023-03-16T18:08:22.628Z,6.38
2023-03-16T18:10:59.269Z,6.88
2023-03-16T18:13:33.461Z,7.05
2023-03-16T18:16:07.062Z,6.95
2023-03-16T18:18:40.885Z,6.28
2023-03-16T18:21:19.633Z,7.18
2023-03-16T18:23:50.333Z,6.85
2023-03-16T18:26:21.407Z,6.70
2023-03-16T18:28:54.319Z,7.22
2023-03-16T18:31:28.100Z,7.88
2023-03-16T18:34:08.636Z,7.68
2023-03-16T18:36:40.671Z,10.60
2023-03-16T18:39:21.249Z,8.75
2023-03-16T18:41:53.504Z,9.00
2023-03-16T18:44:26.670Z,10.45
2023-03-16T18:47:04.040Z,10.73
2023-03-16T18:49:37.375Z,11.88
2023-03-16T18:52:19.767Z,13.30
2023-03-16T18:54:54.154Z,13.52
2023-03-16T18:57:25.931Z,11.85
2023-03-16T18:59:56.965Z,12.77
2023-03-16T19:02:38.155Z,12.52
2023-03-16T19:05:13.951Z,14.02
2023-03-16T19:07:47.221Z,12.65
2023-03-16T19:10:25.375Z,13.30
2023-03-16T19:12:56.334Z,14.82
2023-03-16T19:15:29.071Z,17.48
2023-03-16T19:18:01.950Z,17.63
2023-03-16T19:20:35.098Z,21.90
2023-03-16T19:23:08.980Z,20.52
2023-03-16T19:25:42.242Z,18.20
2023-03-16T19:28:17.966Z,19.08
2023-03-16T19:30:48.495Z,19.63
2023-03-16T19:33:26.575Z,20.73
2023-03-16T19:35:59.619Z,20.55
2023-03-16T19:38:30.616Z,18.50
2023-03-16T19:41:03.358Z,19.17
2023-03-16T19:43:34.002Z,18.33
2023-03-16T19:46:04.809Z,18.13
2023-03-16T19:48:39.943Z,18.67
2023-03-16T19:51:13.480Z,16.10
2023-03-16T19:53:44.607Z,16.00
2023-03-16T19:56:20.622Z,15.10
2023-03-16T19:59:04.607Z,14.80
2023-03-16T20:01:35.993Z,13.40
2023-03-16T20:04:08.856Z,12.63
2023-03-16T20:06:39.386Z,12.45
2023-03-16T20:09:09.878Z,11.60
2023-03-16T20:11:40.449Z,11.93
2023-03-16T20:14:22.771Z,12.45
2023-03-16T20:16:53.916Z,11.70
2023-03-16T20:19:26.085Z,10.98
2023-03-16T20:21:56.547Z,10.05
2023-03-16T20:24:29.644Z,10.35
2023-03-16T20:27:00.503Z,9.43
2023-03-16T20:29:33.557Z,9.77
2023-03-16T20:32:05.576Z,9.02
2023-03-16T20:34:37.823Z,9.73
2023-03-16T20:37:22.740Z,10.40
2023-03-16T20:39:53.825Z,14.48
2023-03-16T20:42:28.644Z,15.13
2023-03-16T20:44:59.242Z,15.82
2023-03-16T20:47:30.330Z,13.73
2023-03-16T20:50:02.437Z,13.90
2023-03-16T20:52:33.174Z,13.80
2023-03-16T20:55:03.724Z,11.32
2023-03-16T20:57:34.644Z,12.68
2023-03-16T21:00:06.347Z,14.88
2023-03-16T21:02:37.446Z,14.45
2023-03-16T21:05:10.647Z,15.75
2023-03-16T21:07:41.413Z,17.45
2023-03-16T21:10:13.687Z,17.65
2023-03-16T21:12:47.267Z,20.75
2023-03-16T21:15:26.051Z,20.27
2023-03-16T21:18:00.355Z,20.27
2023-03-16T21:20:34.710Z,18.15
2023-03-16T21:23:05.823Z,20.38
2023-03-16T21:25:40.302Z,19.88
2023-03-16T21:28:13.652Z,19.98
2023-03-16T21:30:48.444Z,19.98
2023-03-16T21:33:24.538Z,21.67
2023-03-16T21:35:57.110Z,27.42
2023-03-16T21:38:27.911Z,22.13
2023-03-16T21:40:58.838Z,20.42
2023-03-16T21:43:29.516Z,20.25
2023-03-16T21:46:00.446Z,20.52
2023-03-16T21:48:38.297Z,20.52
2023-03-16T21:51:17.043Z,18.98
2023-03-16T21:53:48.762Z,20.73
2023-03-16T21:56:21.458Z,20.15
2023-03-16T21:58:53.065Z,20.90
2023-03-16T22:01:26.450Z,21.58
2023-03-16T22:03:59.714Z,21.48
2023-03-16T22:06:32.128Z,23.55
2023-03-16T22:09:03.864Z,20.75
2023-03-16T22:11:34.600Z,21.65
2023-03-16T22:14:05.594Z,19.58
2023-03-16T22:16:38.827Z,21.77
2023-03-16T22:19:15.370Z,21.00
2023-03-16T22:21:49.292Z,20.80
2023-03-16T22:24:23.189Z,20.35
2023-03-16T22:26:54.549Z,17.88
2023-03-16T22:29:27.184Z,19.20
2023-03-16T22:32:00.568Z,19.02
2023-03-16T22:34:34.505Z,18.00
2023-03-16T22:37:07.608Z,17.40
2023-03-16T22:39:40.472Z,16.63
2023-03-16T22:42:29.623Z,17.02
2023-03-16T22:45:00.397Z,16.30
2023-03-16T22:47:33.794Z,15.50
2023-03-16T22:50:04.428Z,14.80
2023-03-16T22:52:38.011Z,10.73
2023-03-16T22:55:09.979Z,9.45
2023-03-16T22:57:40.580Z,7.25
2023-03-16T23:00:14.936Z,7.13
2023-03-16T23:02:45.872Z,6.55
2023-03-16T23:05:25.416Z,7.05
2023-03-16T23:07:58.668Z,6.95
2023-03-16T23:10:30.912Z,6.70
2023-03-16T23:13:02.976Z,6.60
2023-03-16T23:26:38.261Z,7.22
2023-03-16T23:29:08.849Z,8.38
2023-03-16T23:31:40.162Z,6.95
2023-03-16T23:34:13.728Z,6.72
2023-03-16T23:36:44.237Z,6.78
2023-03-16T23:39:16.351Z,7.00
2023-03-16T23:41:49.386Z,11.88
2023-03-16T23:44:22.311Z,11.82
2023-03-16T23:46:53.344Z,12.30
2023-03-16T23:49:26.933Z,10.20
2023-03-16T23:52:00.463Z,13.32
2023-03-16T23:54:34.397Z,12.30
2023-03-16T23:57:04.849Z,12.90
2023-03-16T23:59:35.441Z,9.90
